<?xml version="1.0" encoding="utf-8"?>
<gpx xmlns:xsi="http://www.w3.org/2001/XMLSchema-instance" xmlns:xsd="http://www.w3.org/2001/XMLSchema" version="1.1" creator="Shapelink.com" xmlns="http://www.topografix.com/GPX/1/1" xmlns:gpxtpx="http://www.garmin.com/xmlschemas/TrackPointExtension/v1">
  <metadata>
    <name>Cykling 12.51 km, 2019-09-10</name>
    <desc></desc>
    <author><name>Henrik Staffas</name></author> 
    <time>2019-09-10T07:33:05Z</time>
  </metadata>
  <trk>
    <name>Cykling 12.51 km, 2019-09-10</name>
    <trkseg>
      <trkpt lat="59.421664195184" lon="17.966760062082">
        <ele>40</ele>
        <time>2019-09-10T07:33:05Z</time>
      </trkpt>
      <trkpt lat="59.42163435562" lon="17.966649337183">
        <ele>40</ele>
        <time>2019-09-10T07:33:07Z</time>
      </trkpt>
      <trkpt lat="59.421337468722" lon="17.965678461706">
        <ele>39.2</ele>
        <time>2019-09-10T07:33:18Z</time>
      </trkpt>
      <trkpt lat="59.421218697199" lon="17.965101367891">
        <ele>39.2</ele>
        <time>2019-09-10T07:33:22Z</time>
      </trkpt>
      <trkpt lat="59.421074779976" lon="17.964605746144">
        <ele>38.2</ele>
        <time>2019-09-10T07:33:26Z</time>
      </trkpt>
      <trkpt lat="59.421062877678" lon="17.96448622025">
        <ele>38</ele>
        <time>2019-09-10T07:33:27Z</time>
      </trkpt>
      <trkpt lat="59.421075115252" lon="17.964372729324">
        <ele>37.6</ele>
        <time>2019-09-10T07:33:28Z</time>
      </trkpt>
      <trkpt lat="59.421136554579" lon="17.96414591511">
        <ele>36.8</ele>
        <time>2019-09-10T07:33:30Z</time>
      </trkpt>
      <trkpt lat="59.421245184003" lon="17.963635038305">
        <ele>36</ele>
        <time>2019-09-10T07:33:34Z</time>
      </trkpt>
      <trkpt lat="59.421261863984" lon="17.963359944347">
        <ele>36.2</ele>
        <time>2019-09-10T07:33:36Z</time>
      </trkpt>
      <trkpt lat="59.421237472655" lon="17.963110331365">
        <ele>36.2</ele>
        <time>2019-09-10T07:33:38Z</time>
      </trkpt>
      <trkpt lat="59.421089951215" lon="17.962034765957">
        <ele>36</ele>
        <time>2019-09-10T07:33:48Z</time>
      </trkpt>
      <trkpt lat="59.421056591253" lon="17.961778363636">
        <ele>35.6</ele>
        <time>2019-09-10T07:33:50Z</time>
      </trkpt>
      <trkpt lat="59.420909153632" lon="17.960739091855">
        <ele>34.6</ele>
        <time>2019-09-10T07:33:58Z</time>
      </trkpt>
      <trkpt lat="59.420893982393" lon="17.960612441346">
        <ele>34.6</ele>
        <time>2019-09-10T07:33:59Z</time>
      </trkpt>
      <trkpt lat="59.420781162019" lon="17.959496307542">
        <ele>35.6</ele>
        <time>2019-09-10T07:34:08Z</time>
      </trkpt>
      <trkpt lat="59.420732044085" lon="17.959042008562">
        <ele>37</ele>
        <time>2019-09-10T07:34:12Z</time>
      </trkpt>
      <trkpt lat="59.420707485118" lon="17.958903120479">
        <ele>37.6</ele>
        <time>2019-09-10T07:34:14Z</time>
      </trkpt>
      <trkpt lat="59.420616038589" lon="17.958795915978">
        <ele>38</ele>
        <time>2019-09-10T07:34:18Z</time>
      </trkpt>
      <trkpt lat="59.42054051767" lon="17.958804633154">
        <ele>38.2</ele>
        <time>2019-09-10T07:34:20Z</time>
      </trkpt>
      <trkpt lat="59.420010027219" lon="17.959249041492">
        <ele>37</ele>
        <time>2019-09-10T07:34:30Z</time>
      </trkpt>
      <trkpt lat="59.419486326107" lon="17.959360772219">
        <ele>35.8</ele>
        <time>2019-09-10T07:34:37Z</time>
      </trkpt>
      <trkpt lat="59.418955668018" lon="17.95953838468">
        <ele>36.8</ele>
        <time>2019-09-10T07:34:44Z</time>
      </trkpt>
      <trkpt lat="59.418412269441" lon="17.959694874753">
        <ele>36.4</ele>
        <time>2019-09-10T07:34:51Z</time>
      </trkpt>
      <trkpt lat="59.417837438739" lon="17.959925796098">
        <ele>36.6</ele>
        <time>2019-09-10T07:34:59Z</time>
      </trkpt>
      <trkpt lat="59.417556309813" lon="17.960044819078">
        <ele>37</ele>
        <time>2019-09-10T07:35:03Z</time>
      </trkpt>
      <trkpt lat="59.417107794344" lon="17.960276913889">
        <ele>38</ele>
        <time>2019-09-10T07:35:10Z</time>
      </trkpt>
      <trkpt lat="59.416577220074" lon="17.960843697967">
        <ele>39.2</ele>
        <time>2019-09-10T07:35:19Z</time>
      </trkpt>
      <trkpt lat="59.4161375056" lon="17.961248627556">
        <ele>40.4</ele>
        <time>2019-09-10T07:35:27Z</time>
      </trkpt>
      <trkpt lat="59.415885378048" lon="17.961522128953">
        <ele>41.4</ele>
        <time>2019-09-10T07:35:32Z</time>
      </trkpt>
      <trkpt lat="59.415744310671" lon="17.961718181594">
        <ele>42.4</ele>
        <time>2019-09-10T07:35:35Z</time>
      </trkpt>
      <trkpt lat="59.415700892429" lon="17.961801665318">
        <ele>42.6</ele>
        <time>2019-09-10T07:35:36Z</time>
      </trkpt>
      <trkpt lat="59.41526411162" lon="17.962455621156">
        <ele>43.4</ele>
        <time>2019-09-10T07:35:45Z</time>
      </trkpt>
      <trkpt lat="59.415174676747" lon="17.962622420966">
        <ele>43.6</ele>
        <time>2019-09-10T07:35:47Z</time>
      </trkpt>
      <trkpt lat="59.414933529484" lon="17.963153665788">
        <ele>44.6</ele>
        <time>2019-09-10T07:35:53Z</time>
      </trkpt>
      <trkpt lat="59.414665560141" lon="17.963941480569">
        <ele>45.6</ele>
        <time>2019-09-10T07:36:01Z</time>
      </trkpt>
      <trkpt lat="59.414512171371" lon="17.964477922169">
        <ele>46.8</ele>
        <time>2019-09-10T07:36:07Z</time>
      </trkpt>
      <trkpt lat="59.414376384591" lon="17.964939429583">
        <ele>48</ele>
        <time>2019-09-10T07:36:13Z</time>
      </trkpt>
      <trkpt lat="59.414299271111" lon="17.965234137187">
        <ele>49.2</ele>
        <time>2019-09-10T07:36:17Z</time>
      </trkpt>
      <trkpt lat="59.414215200654" lon="17.965524402384">
        <ele>50.4</ele>
        <time>2019-09-10T07:36:21Z</time>
      </trkpt>
      <trkpt lat="59.414093579285" lon="17.965915585657">
        <ele>51.6</ele>
        <time>2019-09-10T07:36:26Z</time>
      </trkpt>
      <trkpt lat="59.414018980375" lon="17.966191350167">
        <ele>52.2</ele>
        <time>2019-09-10T07:36:29Z</time>
      </trkpt>
      <trkpt lat="59.413968605156" lon="17.966359910176">
        <ele>52.8</ele>
        <time>2019-09-10T07:36:31Z</time>
      </trkpt>
      <trkpt lat="59.41378805903" lon="17.966838265209">
        <ele>54</ele>
        <time>2019-09-10T07:36:37Z</time>
      </trkpt>
      <trkpt lat="59.413686889497" lon="17.967067510174">
        <ele>55</ele>
        <time>2019-09-10T07:36:40Z</time>
      </trkpt>
      <trkpt lat="59.413438114705" lon="17.967422651277">
        <ele>56.4</ele>
        <time>2019-09-10T07:36:47Z</time>
      </trkpt>
      <trkpt lat="59.413185735696" lon="17.967706462411">
        <ele>57.6</ele>
        <time>2019-09-10T07:36:54Z</time>
      </trkpt>
      <trkpt lat="59.413069646381" lon="17.967823222278">
        <ele>58.8</ele>
        <time>2019-09-10T07:36:57Z</time>
      </trkpt>
      <trkpt lat="59.412904858227" lon="17.967962529456">
        <ele>59.8</ele>
        <time>2019-09-10T07:37:01Z</time>
      </trkpt>
      <trkpt lat="59.412553908074" lon="17.968074344002">
        <ele>61</ele>
        <time>2019-09-10T07:37:09Z</time>
      </trkpt>
      <trkpt lat="59.412007827289" lon="17.968070655966">
        <ele>61.6</ele>
        <time>2019-09-10T07:37:20Z</time>
      </trkpt>
      <trkpt lat="59.411426793981" lon="17.968258159069">
        <ele>60.8</ele>
        <time>2019-09-10T07:37:30Z</time>
      </trkpt>
      <trkpt lat="59.411095876569" lon="17.968440130118">
        <ele>60</ele>
        <time>2019-09-10T07:37:35Z</time>
      </trkpt>
      <trkpt lat="59.41103209031" lon="17.968494109554">
        <ele>59.8</ele>
        <time>2019-09-10T07:37:36Z</time>
      </trkpt>
      <trkpt lat="59.410588101067" lon="17.969167846676">
        <ele>59.6</ele>
        <time>2019-09-10T07:37:45Z</time>
      </trkpt>
      <trkpt lat="59.410361286853" lon="17.969719962429">
        <ele>58.8</ele>
        <time>2019-09-10T07:37:50Z</time>
      </trkpt>
      <trkpt lat="59.410110835681" lon="17.970369978774">
        <ele>57.6</ele>
        <time>2019-09-10T07:37:55Z</time>
      </trkpt>
      <trkpt lat="59.409803722865" lon="17.971290479032">
        <ele>57</ele>
        <time>2019-09-10T07:38:02Z</time>
      </trkpt>
      <trkpt lat="59.409601551437" lon="17.97180278076">
        <ele>56.4</ele>
        <time>2019-09-10T07:38:06Z</time>
      </trkpt>
      <trkpt lat="59.409440283681" lon="17.972182816106">
        <ele>54.8</ele>
        <time>2019-09-10T07:38:09Z</time>
      </trkpt>
      <trkpt lat="59.409326708936" lon="17.972423628093">
        <ele>53.6</ele>
        <time>2019-09-10T07:38:11Z</time>
      </trkpt>
      <trkpt lat="59.409046669657" lon="17.972970044154">
        <ele>52.4</ele>
        <time>2019-09-10T07:38:16Z</time>
      </trkpt>
      <trkpt lat="59.408624976268" lon="17.973809575258">
        <ele>51.6</ele>
        <time>2019-09-10T07:38:23Z</time>
      </trkpt>
      <trkpt lat="59.408155170773" lon="17.97453779473">
        <ele>51.8</ele>
        <time>2019-09-10T07:38:30Z</time>
      </trkpt>
      <trkpt lat="59.407926680179" lon="17.974732590086">
        <ele>51.4</ele>
        <time>2019-09-10T07:38:33Z</time>
      </trkpt>
      <trkpt lat="59.407371798399" lon="17.975011707356">
        <ele>50.8</ele>
        <time>2019-09-10T07:38:40Z</time>
      </trkpt>
      <trkpt lat="59.407208016073" lon="17.97506501624">
        <ele>50.2</ele>
        <time>2019-09-10T07:38:42Z</time>
      </trkpt>
      <trkpt lat="59.406884139457" lon="17.97513290963">
        <ele>49.2</ele>
        <time>2019-09-10T07:38:46Z</time>
      </trkpt>
      <trkpt lat="59.406809205271" lon="17.975173310388">
        <ele>49</ele>
        <time>2019-09-10T07:38:47Z</time>
      </trkpt>
      <trkpt lat="59.406502930645" lon="17.975420744076">
        <ele>47.6</ele>
        <time>2019-09-10T07:38:51Z</time>
      </trkpt>
      <trkpt lat="59.406347697857" lon="17.975568936068">
        <ele>46.6</ele>
        <time>2019-09-10T07:38:53Z</time>
      </trkpt>
      <trkpt lat="59.406291790584" lon="17.97566683666">
        <ele>46.2</ele>
        <time>2019-09-10T07:38:54Z</time>
      </trkpt>
      <trkpt lat="59.405927429391" lon="17.976441910953">
        <ele>46.2</ele>
        <time>2019-09-10T07:39:00Z</time>
      </trkpt>
      <trkpt lat="59.405863391675" lon="17.976572165679">
        <ele>46.2</ele>
        <time>2019-09-10T07:39:01Z</time>
      </trkpt>
      <trkpt lat="59.40572634761" lon="17.976720357671">
        <ele>46</ele>
        <time>2019-09-10T07:39:03Z</time>
      </trkpt>
      <trkpt lat="59.405580251093" lon="17.97673971986">
        <ele>45.4</ele>
        <time>2019-09-10T07:39:05Z</time>
      </trkpt>
      <trkpt lat="59.405378582579" lon="17.976543080486">
        <ele>44.4</ele>
        <time>2019-09-10T07:39:08Z</time>
      </trkpt>
      <trkpt lat="59.405303396936" lon="17.976496058027">
        <ele>44.2</ele>
        <time>2019-09-10T07:39:09Z</time>
      </trkpt>
      <trkpt lat="59.405155121125" lon="17.976388015336">
        <ele>43.4</ele>
        <time>2019-09-10T07:39:11Z</time>
      </trkpt>
      <trkpt lat="59.405027632426" lon="17.976195818369">
        <ele>43</ele>
        <time>2019-09-10T07:39:13Z</time>
      </trkpt>
      <trkpt lat="59.404675760264" lon="17.975261320338">
        <ele>43.2</ele>
        <time>2019-09-10T07:39:20Z</time>
      </trkpt>
      <trkpt lat="59.404560006225" lon="17.975018999609">
        <ele>42.6</ele>
        <time>2019-09-10T07:39:22Z</time>
      </trkpt>
      <trkpt lat="59.404419190305" lon="17.97482445571">
        <ele>41.8</ele>
        <time>2019-09-10T07:39:24Z</time>
      </trkpt>
      <trkpt lat="59.40405583494" lon="17.974555899634">
        <ele>41.8</ele>
        <time>2019-09-10T07:39:29Z</time>
      </trkpt>
      <trkpt lat="59.403795744583" lon="17.974413910248">
        <ele>43.2</ele>
        <time>2019-09-10T07:39:33Z</time>
      </trkpt>
      <trkpt lat="59.403362819448" lon="17.9742050333">
        <ele>44.2</ele>
        <time>2019-09-10T07:39:40Z</time>
      </trkpt>
      <trkpt lat="59.403237342405" lon="17.974093134935">
        <ele>44.2</ele>
        <time>2019-09-10T07:39:42Z</time>
      </trkpt>
      <trkpt lat="59.403059562306" lon="17.973909738963">
        <ele>44.4</ele>
        <time>2019-09-10T07:39:45Z</time>
      </trkpt>
      <trkpt lat="59.402947915398" lon="17.973903955452">
        <ele>44.4</ele>
        <time>2019-09-10T07:39:47Z</time>
      </trkpt>
      <trkpt lat="59.40275915501" lon="17.974079472438">
        <ele>44.4</ele>
        <time>2019-09-10T07:39:51Z</time>
      </trkpt>
      <trkpt lat="59.402394123265" lon="17.975050850829">
        <ele>44.4</ele>
        <time>2019-09-10T07:39:59Z</time>
      </trkpt>
      <trkpt lat="59.402022218362" lon="17.975885855707">
        <ele>44.6</ele>
        <time>2019-09-10T07:40:05Z</time>
      </trkpt>
      <trkpt lat="59.401655510237" lon="17.9766944576">
        <ele>44.2</ele>
        <time>2019-09-10T07:40:11Z</time>
      </trkpt>
      <trkpt lat="59.401243288395" lon="17.977594506022">
        <ele>43.4</ele>
        <time>2019-09-10T07:40:18Z</time>
      </trkpt>
      <trkpt lat="59.400952604103" lon="17.978215018079">
        <ele>43</ele>
        <time>2019-09-10T07:40:23Z</time>
      </trkpt>
      <trkpt lat="59.400562007563" lon="17.979083718195">
        <ele>43</ele>
        <time>2019-09-10T07:40:30Z</time>
      </trkpt>
      <trkpt lat="59.4001532223" lon="17.979927607887">
        <ele>42.8</ele>
        <time>2019-09-10T07:40:37Z</time>
      </trkpt>
      <trkpt lat="59.399753238032" lon="17.98071609322">
        <ele>42</ele>
        <time>2019-09-10T07:40:44Z</time>
      </trkpt>
      <trkpt lat="59.399654750707" lon="17.980951708429">
        <ele>41.6</ele>
        <time>2019-09-10T07:40:46Z</time>
      </trkpt>
      <trkpt lat="59.399563639454" lon="17.981203333067">
        <ele>41.6</ele>
        <time>2019-09-10T07:40:48Z</time>
      </trkpt>
      <trkpt lat="59.399326934598" lon="17.981682191014">
        <ele>40.8</ele>
        <time>2019-09-10T07:40:52Z</time>
      </trkpt>
      <trkpt lat="59.399032813727" lon="17.982273953154">
        <ele>40.8</ele>
        <time>2019-09-10T07:40:57Z</time>
      </trkpt>
      <trkpt lat="59.39869058075" lon="17.982693551068">
        <ele>39.4</ele>
        <time>2019-09-10T07:41:02Z</time>
      </trkpt>
      <trkpt lat="59.3984097871" lon="17.9830060283">
        <ele>38.2</ele>
        <time>2019-09-10T07:41:06Z</time>
      </trkpt>
      <trkpt lat="59.397919194493" lon="17.983707090416">
        <ele>38</ele>
        <time>2019-09-10T07:41:13Z</time>
      </trkpt>
      <trkpt lat="59.397441258555" lon="17.984208411855">
        <ele>37</ele>
        <time>2019-09-10T07:41:19Z</time>
      </trkpt>
      <trkpt lat="59.397191310297" lon="17.984441177218">
        <ele>35.8</ele>
        <time>2019-09-10T07:41:22Z</time>
      </trkpt>
      <trkpt lat="59.396805239983" lon="17.984838395459">
        <ele>34.6</ele>
        <time>2019-09-10T07:41:27Z</time>
      </trkpt>
      <trkpt lat="59.39634951608" lon="17.985300070511">
        <ele>33.4</ele>
        <time>2019-09-10T07:41:33Z</time>
      </trkpt>
      <trkpt lat="59.395843584596" lon="17.985788567643">
        <ele>33.4</ele>
        <time>2019-09-10T07:41:40Z</time>
      </trkpt>
      <trkpt lat="59.395256851596" lon="17.986135075389">
        <ele>33.2</ele>
        <time>2019-09-10T07:41:48Z</time>
      </trkpt>
      <trkpt lat="59.394711525182" lon="17.9864761349">
        <ele>32.4</ele>
        <time>2019-09-10T07:41:55Z</time>
      </trkpt>
      <trkpt lat="59.394165612035" lon="17.986776626015">
        <ele>32.6</ele>
        <time>2019-09-10T07:42:02Z</time>
      </trkpt>
      <trkpt lat="59.393811979674" lon="17.986856421703">
        <ele>31</ele>
        <time>2019-09-10T07:42:07Z</time>
      </trkpt>
      <trkpt lat="59.393420377306" lon="17.987311726511">
        <ele>30</ele>
        <time>2019-09-10T07:42:11Z</time>
      </trkpt>
      <trkpt lat="59.392876140539" lon="17.987622275906">
        <ele>28.8</ele>
        <time>2019-09-10T07:42:17Z</time>
      </trkpt>
      <trkpt lat="59.392473138787" lon="17.988251086044">
        <ele>27.8</ele>
        <time>2019-09-10T07:42:23Z</time>
      </trkpt>
      <trkpt lat="59.39219460825" lon="17.989307792177">
        <ele>27.8</ele>
        <time>2019-09-10T07:42:30Z</time>
      </trkpt>
      <trkpt lat="59.391964273638" lon="17.990269028469">
        <ele>26.4</ele>
        <time>2019-09-10T07:42:36Z</time>
      </trkpt>
      <trkpt lat="59.391793785792" lon="17.990887025956">
        <ele>25.4</ele>
        <time>2019-09-10T07:42:40Z</time>
      </trkpt>
      <trkpt lat="59.391508465916" lon="17.991808532042">
        <ele>24.4</ele>
        <time>2019-09-10T07:42:46Z</time>
      </trkpt>
      <trkpt lat="59.391460018534" lon="17.991956724034">
        <ele>24</ele>
        <time>2019-09-10T07:42:47Z</time>
      </trkpt>
      <trkpt lat="59.391363626684" lon="17.992258472434">
        <ele>22.8</ele>
        <time>2019-09-10T07:42:49Z</time>
      </trkpt>
      <trkpt lat="59.391034469471" lon="17.993296989844">
        <ele>21.8</ele>
        <time>2019-09-10T07:42:56Z</time>
      </trkpt>
      <trkpt lat="59.390709251751" lon="17.994328634096">
        <ele>21.4</ele>
        <time>2019-09-10T07:43:03Z</time>
      </trkpt>
      <trkpt lat="59.390429715386" lon="17.995176211824">
        <ele>20.6</ele>
        <time>2019-09-10T07:43:09Z</time>
      </trkpt>
      <trkpt lat="59.39010583877" lon="17.996153792821">
        <ele>20.8</ele>
        <time>2019-09-10T07:43:16Z</time>
      </trkpt>
      <trkpt lat="59.390051691696" lon="17.996287232669">
        <ele>20.6</ele>
        <time>2019-09-10T07:43:17Z</time>
      </trkpt>
      <trkpt lat="59.389680624983" lon="17.996737843613">
        <ele>22</ele>
        <time>2019-09-10T07:43:23Z</time>
      </trkpt>
      <trkpt lat="59.389576857061" lon="17.996859884077">
        <ele>23</ele>
        <time>2019-09-10T07:43:25Z</time>
      </trkpt>
      <trkpt lat="59.38953503138" lon="17.996918557377">
        <ele>23.4</ele>
        <time>2019-09-10T07:43:26Z</time>
      </trkpt>
      <trkpt lat="59.389202940502" lon="17.997402360645">
        <ele>25.6</ele>
        <time>2019-09-10T07:43:33Z</time>
      </trkpt>
      <trkpt lat="59.38915533131" lon="17.997460028117">
        <ele>26</ele>
        <time>2019-09-10T07:43:34Z</time>
      </trkpt>
      <trkpt lat="59.389016610865" lon="17.99762070914">
        <ele>26.8</ele>
        <time>2019-09-10T07:43:37Z</time>
      </trkpt>
      <trkpt lat="59.388925415793" lon="17.997711652755">
        <ele>27.6</ele>
        <time>2019-09-10T07:43:39Z</time>
      </trkpt>
      <trkpt lat="59.388886859053" lon="17.99775481954">
        <ele>28.2</ele>
        <time>2019-09-10T07:43:40Z</time>
      </trkpt>
      <trkpt lat="59.388806895727" lon="17.997835704875">
        <ele>29.2</ele>
        <time>2019-09-10T07:43:42Z</time>
      </trkpt>
      <trkpt lat="59.388731123351" lon="17.997930671802">
        <ele>30.4</ele>
        <time>2019-09-10T07:43:44Z</time>
      </trkpt>
      <trkpt lat="59.388670773671" lon="17.998006360359">
        <ele>31.4</ele>
        <time>2019-09-10T07:43:46Z</time>
      </trkpt>
      <trkpt lat="59.3885359089" lon="17.998178692223">
        <ele>32.6</ele>
        <time>2019-09-10T07:43:50Z</time>
      </trkpt>
      <trkpt lat="59.388369192909" lon="17.998478009872">
        <ele>33.6</ele>
        <time>2019-09-10T07:43:55Z</time>
      </trkpt>
      <trkpt lat="59.388332564006" lon="17.998536096439">
        <ele>33.8</ele>
        <time>2019-09-10T07:43:56Z</time>
      </trkpt>
      <trkpt lat="59.388066103405" lon="17.998922837305">
        <ele>32.6</ele>
        <time>2019-09-10T07:44:02Z</time>
      </trkpt>
      <trkpt lat="59.387966274976" lon="17.99898360608">
        <ele>31.6</ele>
        <time>2019-09-10T07:44:04Z</time>
      </trkpt>
      <trkpt lat="59.387800061899" lon="17.99899114979">
        <ele>30.6</ele>
        <time>2019-09-10T07:44:07Z</time>
      </trkpt>
      <trkpt lat="59.387712638682" lon="17.998681354766">
        <ele>30.8</ele>
        <time>2019-09-10T07:44:11Z</time>
      </trkpt>
      <trkpt lat="59.387645415844" lon="17.998473567465">
        <ele>31.6</ele>
        <time>2019-09-10T07:44:14Z</time>
      </trkpt>
      <trkpt lat="59.38754181556" lon="17.998273407693">
        <ele>32.2</ele>
        <time>2019-09-10T07:44:17Z</time>
      </trkpt>
      <trkpt lat="59.387444417882" lon="17.998145751356">
        <ele>32.4</ele>
        <time>2019-09-10T07:44:19Z</time>
      </trkpt>
      <trkpt lat="59.387323299427" lon="17.997827490613">
        <ele>32.4</ele>
        <time>2019-09-10T07:44:21Z</time>
      </trkpt>
      <trkpt lat="59.386785935818" lon="17.997681477915">
        <ele>31.8</ele>
        <time>2019-09-10T07:44:27Z</time>
      </trkpt>
      <trkpt lat="59.386606311701" lon="17.99768357339">
        <ele>30.6</ele>
        <time>2019-09-10T07:44:29Z</time>
      </trkpt>
      <trkpt lat="59.386330128096" lon="17.997706288339">
        <ele>29</ele>
        <time>2019-09-10T07:44:32Z</time>
      </trkpt>
      <trkpt lat="59.386146396848" lon="17.997716095162">
        <ele>27.8</ele>
        <time>2019-09-10T07:44:34Z</time>
      </trkpt>
      <trkpt lat="59.385867866311" lon="17.997727662184">
        <ele>26.8</ele>
        <time>2019-09-10T07:44:37Z</time>
      </trkpt>
      <trkpt lat="59.385302339518" lon="17.9977581723">
        <ele>25.8</ele>
        <time>2019-09-10T07:44:43Z</time>
      </trkpt>
      <trkpt lat="59.38521248555" lon="17.997758423757">
        <ele>25.6</ele>
        <time>2019-09-10T07:44:44Z</time>
      </trkpt>
      <trkpt lat="59.38483697643" lon="17.997795136479">
        <ele>24.6</ele>
        <time>2019-09-10T07:44:48Z</time>
      </trkpt>
      <trkpt lat="59.384657771408" lon="17.997819108713">
        <ele>24.4</ele>
        <time>2019-09-10T07:44:50Z</time>
      </trkpt>
      <trkpt lat="59.384142452196" lon="17.997879542212">
        <ele>23.4</ele>
        <time>2019-09-10T07:44:56Z</time>
      </trkpt>
      <trkpt lat="59.383833076267" lon="17.99794508867">
        <ele>23.2</ele>
        <time>2019-09-10T07:45:00Z</time>
      </trkpt>
      <trkpt lat="59.383683040257" lon="17.998062183813">
        <ele>23.4</ele>
        <time>2019-09-10T07:45:02Z</time>
      </trkpt>
      <trkpt lat="59.383206613061" lon="17.998702896249">
        <ele>22.4</ele>
        <time>2019-09-10T07:45:09Z</time>
      </trkpt>
      <trkpt lat="59.383035035568" lon="17.998996765663">
        <ele>22.4</ele>
        <time>2019-09-10T07:45:12Z</time>
      </trkpt>
      <trkpt lat="59.382954988423" lon="17.999262136617">
        <ele>22.8</ele>
        <time>2019-09-10T07:45:14Z</time>
      </trkpt>
      <trkpt lat="59.382870163595" lon="17.999645440904">
        <ele>23.4</ele>
        <time>2019-09-10T07:45:17Z</time>
      </trkpt>
      <trkpt lat="59.38282448224" lon="17.999759015649">
        <ele>23.4</ele>
        <time>2019-09-10T07:45:18Z</time>
      </trkpt>
      <trkpt lat="59.382768742605" lon="17.999857754431">
        <ele>23.4</ele>
        <time>2019-09-10T07:45:19Z</time>
      </trkpt>
      <trkpt lat="59.38257721619" lon="18.000108373241">
        <ele>22.2</ele>
        <time>2019-09-10T07:45:22Z</time>
      </trkpt>
      <trkpt lat="59.382078325502" lon="18.000716815362">
        <ele>22.8</ele>
        <time>2019-09-10T07:45:30Z</time>
      </trkpt>
      <trkpt lat="59.381633078974" lon="18.001489039809">
        <ele>22.6</ele>
        <time>2019-09-10T07:45:37Z</time>
      </trkpt>
      <trkpt lat="59.381496621642" lon="18.001621222372">
        <ele>21.8</ele>
        <time>2019-09-10T07:45:39Z</time>
      </trkpt>
      <trkpt lat="59.381228149385" lon="18.001765055776">
        <ele>21</ele>
        <time>2019-09-10T07:45:43Z</time>
      </trkpt>
      <trkpt lat="59.381102756161" lon="18.001712165987">
        <ele>21</ele>
        <time>2019-09-10T07:45:45Z</time>
      </trkpt>
      <trkpt lat="59.380909888642" lon="18.001551987878">
        <ele>21.2</ele>
        <time>2019-09-10T07:45:48Z</time>
      </trkpt>
      <trkpt lat="59.380723475186" lon="18.001452830001">
        <ele>22</ele>
        <time>2019-09-10T07:45:51Z</time>
      </trkpt>
      <trkpt lat="59.380420804777" lon="18.001345457862">
        <ele>23.2</ele>
        <time>2019-09-10T07:45:56Z</time>
      </trkpt>
      <trkpt lat="59.380249059646" lon="18.00131377428">
        <ele>24.4</ele>
        <time>2019-09-10T07:45:59Z</time>
      </trkpt>
      <trkpt lat="59.38019256564" lon="18.001318971058">
        <ele>24.8</ele>
        <time>2019-09-10T07:46:00Z</time>
      </trkpt>
      <trkpt lat="59.380022999803" lon="18.001384685154">
        <ele>25.6</ele>
        <time>2019-09-10T07:46:03Z</time>
      </trkpt>
      <trkpt lat="59.379465351996" lon="18.00180663">
        <ele>26</ele>
        <time>2019-09-10T07:46:13Z</time>
      </trkpt>
      <trkpt lat="59.379024799332" lon="18.002132099177">
        <ele>26.6</ele>
        <time>2019-09-10T07:46:21Z</time>
      </trkpt>
      <trkpt lat="59.37879781748" lon="18.002292612562">
        <ele>27.8</ele>
        <time>2019-09-10T07:46:25Z</time>
      </trkpt>
      <trkpt lat="59.378582486469" lon="18.00243778707">
        <ele>28.8</ele>
        <time>2019-09-10T07:46:29Z</time>
      </trkpt>
      <trkpt lat="59.378159871071" lon="18.002799549874">
        <ele>30</ele>
        <time>2019-09-10T07:46:37Z</time>
      </trkpt>
      <trkpt lat="59.377989299406" lon="18.002922847623">
        <ele>30</ele>
        <time>2019-09-10T07:46:40Z</time>
      </trkpt>
      <trkpt lat="59.377813614782" lon="18.003124767594">
        <ele>29.6</ele>
        <time>2019-09-10T07:46:43Z</time>
      </trkpt>
      <trkpt lat="59.377678079459" lon="18.003188050939">
        <ele>29.4</ele>
        <time>2019-09-10T07:46:45Z</time>
      </trkpt>
      <trkpt lat="59.377529468372" lon="18.003236749778">
        <ele>29.2</ele>
        <time>2019-09-10T07:46:47Z</time>
      </trkpt>
      <trkpt lat="59.37737624724" lon="18.003362143002">
        <ele>28.8</ele>
        <time>2019-09-10T07:46:49Z</time>
      </trkpt>
      <trkpt lat="59.377051700072" lon="18.003692976595">
        <ele>27.6</ele>
        <time>2019-09-10T07:46:53Z</time>
      </trkpt>
      <trkpt lat="59.376787586403" lon="18.003961700309">
        <ele>26.4</ele>
        <time>2019-09-10T07:46:56Z</time>
      </trkpt>
      <trkpt lat="59.376589354468" lon="18.004070832647">
        <ele>25</ele>
        <time>2019-09-10T07:46:58Z</time>
      </trkpt>
      <trkpt lat="59.376375029285" lon="18.004183317745">
        <ele>24</ele>
        <time>2019-09-10T07:47:00Z</time>
      </trkpt>
      <trkpt lat="59.375984600383" lon="18.004393116702">
        <ele>22.6</ele>
        <time>2019-09-10T07:47:04Z</time>
      </trkpt>
      <trkpt lat="59.375792822511" lon="18.004507529637">
        <ele>21.6</ele>
        <time>2019-09-10T07:47:06Z</time>
      </trkpt>
      <trkpt lat="59.375420917608" lon="18.004758232266">
        <ele>20.6</ele>
        <time>2019-09-10T07:47:10Z</time>
      </trkpt>
      <trkpt lat="59.374877519031" lon="18.005199539301">
        <ele>20.4</ele>
        <time>2019-09-10T07:47:16Z</time>
      </trkpt>
      <trkpt lat="59.374333282264" lon="18.005663393647">
        <ele>19.6</ele>
        <time>2019-09-10T07:47:22Z</time>
      </trkpt>
      <trkpt lat="59.373894657437" lon="18.006037561663">
        <ele>18.4</ele>
        <time>2019-09-10T07:47:27Z</time>
      </trkpt>
      <trkpt lat="59.373336674354" lon="18.006490603358">
        <ele>18.2</ele>
        <time>2019-09-10T07:47:34Z</time>
      </trkpt>
      <trkpt lat="59.372766034602" lon="18.006879607337">
        <ele>18.6</ele>
        <time>2019-09-10T07:47:42Z</time>
      </trkpt>
      <trkpt lat="59.372574675825" lon="18.007016902859">
        <ele>19</ele>
        <time>2019-09-10T07:47:45Z</time>
      </trkpt>
      <trkpt lat="59.372452970637" lon="18.007167190326">
        <ele>19.6</ele>
        <time>2019-09-10T07:47:47Z</time>
      </trkpt>
      <trkpt lat="59.371919043607" lon="18.007660046046">
        <ele>20</ele>
        <time>2019-09-10T07:47:55Z</time>
      </trkpt>
      <trkpt lat="59.37161788194" lon="18.007850315176">
        <ele>20.6</ele>
        <time>2019-09-10T07:47:59Z</time>
      </trkpt>
      <trkpt lat="59.371539762632" lon="18.007870264098">
        <ele>20.6</ele>
        <time>2019-09-10T07:48:00Z</time>
      </trkpt>
      <trkpt lat="59.37093643347" lon="18.007994819132">
        <ele>20</ele>
        <time>2019-09-10T07:48:08Z</time>
      </trkpt>
      <trkpt lat="59.370359674931" lon="18.008177209276">
        <ele>21.2</ele>
        <time>2019-09-10T07:48:17Z</time>
      </trkpt>
      <trkpt lat="59.370295888672" lon="18.008207719392">
        <ele>21.6</ele>
        <time>2019-09-10T07:48:18Z</time>
      </trkpt>
      <trkpt lat="59.369741845082" lon="18.008422547489">
        <ele>22.4</ele>
        <time>2019-09-10T07:48:27Z</time>
      </trkpt>
      <trkpt lat="59.369207331319" lon="18.008658581793">
        <ele>22.4</ele>
        <time>2019-09-10T07:48:36Z</time>
      </trkpt>
      <trkpt lat="59.368732412865" lon="18.009240369472">
        <ele>22.6</ele>
        <time>2019-09-10T07:48:46Z</time>
      </trkpt>
      <trkpt lat="59.368543484839" lon="18.009667427277">
        <ele>23.2</ele>
        <time>2019-09-10T07:48:52Z</time>
      </trkpt>
      <trkpt lat="59.368465616988" lon="18.009799526021">
        <ele>23.4</ele>
        <time>2019-09-10T07:48:54Z</time>
      </trkpt>
      <trkpt lat="59.368409458258" lon="18.010016533412">
        <ele>23.4</ele>
        <time>2019-09-10T07:48:56Z</time>
      </trkpt>
      <trkpt lat="59.36830786963" lon="18.010319622916">
        <ele>23.2</ele>
        <time>2019-09-10T07:48:58Z</time>
      </trkpt>
      <trkpt lat="59.367950716871" lon="18.01119100524">
        <ele>23.4</ele>
        <time>2019-09-10T07:49:06Z</time>
      </trkpt>
      <trkpt lat="59.367795819359" lon="18.011499710617">
        <ele>23.8</ele>
        <time>2019-09-10T07:49:09Z</time>
      </trkpt>
      <trkpt lat="59.367695236559" lon="18.011676065793">
        <ele>24</ele>
        <time>2019-09-10T07:49:11Z</time>
      </trkpt>
      <trkpt lat="59.367350908107" lon="18.012103207417">
        <ele>25</ele>
        <time>2019-09-10T07:49:19Z</time>
      </trkpt>
      <trkpt lat="59.367243787425" lon="18.012166071667">
        <ele>26</ele>
        <time>2019-09-10T07:49:22Z</time>
      </trkpt>
      <trkpt lat="59.367205063047" lon="18.012189373349">
        <ele>26.2</ele>
        <time>2019-09-10T07:49:23Z</time>
      </trkpt>
      <trkpt lat="59.367136415286" lon="18.012290961977">
        <ele>26.4</ele>
        <time>2019-09-10T07:49:25Z</time>
      </trkpt>
      <trkpt lat="59.367068605715" lon="18.012421300522">
        <ele>26.2</ele>
        <time>2019-09-10T07:49:27Z</time>
      </trkpt>
      <trkpt lat="59.366732994439" lon="18.012852130182">
        <ele>27.2</ele>
        <time>2019-09-10T07:49:34Z</time>
      </trkpt>
      <trkpt lat="59.366442142509" lon="18.013260328712">
        <ele>28.2</ele>
        <time>2019-09-10T07:49:40Z</time>
      </trkpt>
      <trkpt lat="59.365994381411" lon="18.013900538234">
        <ele>28.4</ele>
        <time>2019-09-10T07:49:49Z</time>
      </trkpt>
      <trkpt lat="59.3655192115" lon="18.014462544629">
        <ele>27.4</ele>
        <time>2019-09-10T07:49:58Z</time>
      </trkpt>
      <trkpt lat="59.365380826331" lon="18.014657088528">
        <ele>27.8</ele>
        <time>2019-09-10T07:50:01Z</time>
      </trkpt>
      <trkpt lat="59.365311843294" lon="18.014798658819">
        <ele>28</ele>
        <time>2019-09-10T07:50:03Z</time>
      </trkpt>
      <trkpt lat="59.365228946303" lon="18.014915418686">
        <ele>28</ele>
        <time>2019-09-10T07:50:05Z</time>
      </trkpt>
      <trkpt lat="59.365063068502" lon="18.014985910465">
        <ele>28</ele>
        <time>2019-09-10T07:50:08Z</time>
      </trkpt>
      <trkpt lat="59.364947482101" lon="18.014946347897">
        <ele>27.6</ele>
        <time>2019-09-10T07:50:10Z</time>
      </trkpt>
      <trkpt lat="59.364845977292" lon="18.014970739226">
        <ele>27.6</ele>
        <time>2019-09-10T07:50:12Z</time>
      </trkpt>
      <trkpt lat="59.364570296601" lon="18.014766472323">
        <ele>29.4</ele>
        <time>2019-09-10T07:50:17Z</time>
      </trkpt>
      <trkpt lat="59.364520759572" lon="18.01473571075">
        <ele>29.6</ele>
        <time>2019-09-10T07:50:18Z</time>
      </trkpt>
      <trkpt lat="59.364354630314" lon="18.014664129324">
        <ele>29.2</ele>
        <time>2019-09-10T07:50:22Z</time>
      </trkpt>
      <trkpt lat="59.364384972792" lon="18.015291263082">
        <ele>30.6</ele>
        <time>2019-09-10T07:50:33Z</time>
      </trkpt>
      <trkpt lat="59.364377680539" lon="18.015381619964">
        <ele>31.6</ele>
        <time>2019-09-10T07:50:36Z</time>
      </trkpt>
      <trkpt lat="59.36429293953" lon="18.016052591059">
        <ele>32.6</ele>
        <time>2019-09-10T07:50:44Z</time>
      </trkpt>
      <trkpt lat="59.364271649504" lon="18.016155185515">
        <ele>32.6</ele>
        <time>2019-09-10T07:50:46Z</time>
      </trkpt>
      <trkpt lat="59.364181124984" lon="18.016256019772">
        <ele>34</ele>
        <time>2019-09-10T07:50:52Z</time>
      </trkpt>
      <trkpt lat="59.364177939862" lon="18.016349813233">
        <ele>34.4</ele>
        <time>2019-09-10T07:50:54Z</time>
      </trkpt>
      <trkpt lat="59.363925309396" lon="18.016442014133">
        <ele>34.6</ele>
        <time>2019-09-10T07:50:57Z</time>
      </trkpt>
      <trkpt lat="59.363757922853" lon="18.016455760449">
        <ele>34.6</ele>
        <time>2019-09-10T07:50:59Z</time>
      </trkpt>
      <trkpt lat="59.363693466042" lon="18.016196508282">
        <ele>35</ele>
        <time>2019-09-10T07:51:02Z</time>
      </trkpt>
      <trkpt lat="59.363609395585" lon="18.016092824179">
        <ele>35.6</ele>
        <time>2019-09-10T07:51:04Z</time>
      </trkpt>
      <trkpt lat="59.363501604351" lon="18.016031049576">
        <ele>36.2</ele>
        <time>2019-09-10T07:51:07Z</time>
      </trkpt>
      <trkpt lat="59.363432872771" lon="18.01585888535">
        <ele>37</ele>
        <time>2019-09-10T07:51:10Z</time>
      </trkpt>
      <trkpt lat="59.363398842257" lon="18.015833488193">
        <ele>37.4</ele>
        <time>2019-09-10T07:51:11Z</time>
      </trkpt>
      <trkpt lat="59.36329633162" lon="18.015832566184">
        <ele>37.8</ele>
        <time>2019-09-10T07:51:13Z</time>
      </trkpt>
      <trkpt lat="59.362964156923" lon="18.016030798119">
        <ele>38.2</ele>
        <time>2019-09-10T07:51:20Z</time>
      </trkpt>
      <trkpt lat="59.362880086466" lon="18.016065583004">
        <ele>38.4</ele>
        <time>2019-09-10T07:51:22Z</time>
      </trkpt>
      <trkpt lat="59.362559227334" lon="18.016249062795">
        <ele>38</ele>
        <time>2019-09-10T07:51:30Z</time>
      </trkpt>
      <trkpt lat="59.362270219422" lon="18.01649255699">
        <ele>39.4</ele>
        <time>2019-09-10T07:51:39Z</time>
      </trkpt>
      <trkpt lat="59.362145664388" lon="18.016550978833">
        <ele>40.6</ele>
        <time>2019-09-10T07:51:43Z</time>
      </trkpt>
      <trkpt lat="59.361682145318" lon="18.01694853235">
        <ele>39.6</ele>
        <time>2019-09-10T07:51:54Z</time>
      </trkpt>
      <trkpt lat="59.361632692108" lon="18.016991782954">
        <ele>39.4</ele>
        <time>2019-09-10T07:51:55Z</time>
      </trkpt>
      <trkpt lat="59.36157217479" lon="18.01702145488">
        <ele>39.2</ele>
        <time>2019-09-10T07:51:56Z</time>
      </trkpt>
      <trkpt lat="59.361025758729" lon="18.017182052084">
        <ele>38.4</ele>
        <time>2019-09-10T07:52:03Z</time>
      </trkpt>
      <trkpt lat="59.360941352996" lon="18.017213651847">
        <ele>38</ele>
        <time>2019-09-10T07:52:04Z</time>
      </trkpt>
      <trkpt lat="59.360847475716" lon="18.017232930217">
        <ele>37.4</ele>
        <time>2019-09-10T07:52:05Z</time>
      </trkpt>
      <trkpt lat="59.36073733755" lon="18.017259165564">
        <ele>36.6</ele>
        <time>2019-09-10T07:52:06Z</time>
      </trkpt>
      <trkpt lat="59.360533238285" lon="18.017315491932">
        <ele>35.4</ele>
        <time>2019-09-10T07:52:08Z</time>
      </trkpt>
      <trkpt lat="59.360127805782" lon="18.017401490226">
        <ele>34.4</ele>
        <time>2019-09-10T07:52:12Z</time>
      </trkpt>
      <trkpt lat="59.359751793748" lon="18.017425127184">
        <ele>33.4</ele>
        <time>2019-09-10T07:52:16Z</time>
      </trkpt>
      <trkpt lat="59.359470748641" lon="18.017389168833">
        <ele>33.2</ele>
        <time>2019-09-10T07:52:19Z</time>
      </trkpt>
      <trkpt lat="59.359029273968" lon="18.017333848293">
        <ele>32</ele>
        <time>2019-09-10T07:52:24Z</time>
      </trkpt>
      <trkpt lat="59.358871107515" lon="18.017276767554">
        <ele>31</ele>
        <time>2019-09-10T07:52:26Z</time>
      </trkpt>
      <trkpt lat="59.358425525711" lon="18.017135532539">
        <ele>30</ele>
        <time>2019-09-10T07:52:31Z</time>
      </trkpt>
      <trkpt lat="59.358011292213" lon="18.017032099893">
        <ele>28.8</ele>
        <time>2019-09-10T07:52:36Z</time>
      </trkpt>
      <trkpt lat="59.35737368108" lon="18.016965547607">
        <ele>28.2</ele>
        <time>2019-09-10T07:52:42Z</time>
      </trkpt>
      <trkpt lat="59.356798598921" lon="18.016781900178">
        <ele>28.8</ele>
        <time>2019-09-10T07:52:49Z</time>
      </trkpt>
      <trkpt lat="59.356260480941" lon="18.016409324723">
        <ele>28.8</ele>
        <time>2019-09-10T07:52:58Z</time>
      </trkpt>
      <trkpt lat="59.355669724629" lon="18.016262390016">
        <ele>27.8</ele>
        <time>2019-09-10T07:53:06Z</time>
      </trkpt>
      <trkpt lat="59.355556988074" lon="18.016119478621">
        <ele>27.6</ele>
        <time>2019-09-10T07:53:08Z</time>
      </trkpt>
      <trkpt lat="59.355478868766" lon="18.015960893073">
        <ele>27.4</ele>
        <time>2019-09-10T07:53:10Z</time>
      </trkpt>
      <trkpt lat="59.355330509136" lon="18.015766935907">
        <ele>26.6</ele>
        <time>2019-09-10T07:53:13Z</time>
      </trkpt>
      <trkpt lat="59.355168738466" lon="18.015662078338">
        <ele>25.4</ele>
        <time>2019-09-10T07:53:17Z</time>
      </trkpt>
      <trkpt lat="59.354982073553" lon="18.015373154245">
        <ele>24.6</ele>
        <time>2019-09-10T07:53:37Z</time>
      </trkpt>
      <trkpt lat="59.35490102058" lon="18.015297549507">
        <ele>24.4</ele>
        <time>2019-09-10T07:53:39Z</time>
      </trkpt>
      <trkpt lat="59.354756097529" lon="18.015154554293">
        <ele>24.2</ele>
        <time>2019-09-10T07:53:43Z</time>
      </trkpt>
      <trkpt lat="59.35500411795" lon="18.014589781871">
        <ele>23.4</ele>
        <time>2019-09-10T07:53:52Z</time>
      </trkpt>
      <trkpt lat="59.355113166469" lon="18.014302031244">
        <ele>23</ele>
        <time>2019-09-10T07:53:55Z</time>
      </trkpt>
      <trkpt lat="59.355204529179" lon="18.014076641953">
        <ele>23</ele>
        <time>2019-09-10T07:53:58Z</time>
      </trkpt>
      <trkpt lat="59.355401587648" lon="18.013524777657">
        <ele>23</ele>
        <time>2019-09-10T07:54:06Z</time>
      </trkpt>
      <trkpt lat="59.355547684165" lon="18.012665968183">
        <ele>23.2</ele>
        <time>2019-09-10T07:54:12Z</time>
      </trkpt>
      <trkpt lat="59.355665952774" lon="18.011768099055">
        <ele>23.2</ele>
        <time>2019-09-10T07:54:20Z</time>
      </trkpt>
      <trkpt lat="59.355722530599" lon="18.011410694839">
        <ele>23.4</ele>
        <time>2019-09-10T07:54:29Z</time>
      </trkpt>
      <trkpt lat="59.355519185705" lon="18.011819731559">
        <ele>24.6</ele>
        <time>2019-09-10T07:54:40Z</time>
      </trkpt>
      <trkpt lat="59.355394295395" lon="18.012225918433">
        <ele>24.8</ele>
        <time>2019-09-10T07:54:45Z</time>
      </trkpt>
      <trkpt lat="59.355305111979" lon="18.012383917248">
        <ele>24.6</ele>
        <time>2019-09-10T07:54:47Z</time>
      </trkpt>
      <trkpt lat="59.35512817007" lon="18.012459019072">
        <ele>24.6</ele>
        <time>2019-09-10T07:54:50Z</time>
      </trkpt>
      <trkpt lat="59.354847292601" lon="18.012673930988">
        <ele>25.6</ele>
        <time>2019-09-10T07:54:55Z</time>
      </trkpt>
      <trkpt lat="59.354696334582" lon="18.012797564013">
        <ele>26</ele>
        <time>2019-09-10T07:54:58Z</time>
      </trkpt>
      <trkpt lat="59.354601283836" lon="18.012826481568">
        <ele>26.2</ele>
        <time>2019-09-10T07:55:00Z</time>
      </trkpt>
      <trkpt lat="59.354473962775" lon="18.012819776048">
        <ele>26.6</ele>
        <time>2019-09-10T07:55:03Z</time>
      </trkpt>
      <trkpt lat="59.354386455739" lon="18.012691532978">
        <ele>27.8</ele>
        <time>2019-09-10T07:55:06Z</time>
      </trkpt>
      <trkpt lat="59.354349575379" lon="18.012653143876">
        <ele>28.4</ele>
        <time>2019-09-10T07:55:07Z</time>
      </trkpt>
      <trkpt lat="59.354308839345" lon="18.012652389505">
        <ele>29</ele>
        <time>2019-09-10T07:55:08Z</time>
      </trkpt>
      <trkpt lat="59.354165508855" lon="18.012712236271">
        <ele>29.6</ele>
        <time>2019-09-10T07:55:11Z</time>
      </trkpt>
      <trkpt lat="59.35405193411" lon="18.012702345629">
        <ele>29.6</ele>
        <time>2019-09-10T07:55:13Z</time>
      </trkpt>
      <trkpt lat="59.353954871708" lon="18.012605283227">
        <ele>29.4</ele>
        <time>2019-09-10T07:55:15Z</time>
      </trkpt>
      <trkpt lat="59.353808356096" lon="18.012280568421">
        <ele>30</ele>
        <time>2019-09-10T07:55:19Z</time>
      </trkpt>
      <trkpt lat="59.353737864317" lon="18.01213899813">
        <ele>30.8</ele>
        <time>2019-09-10T07:55:21Z</time>
      </trkpt>
      <trkpt lat="59.353727806037" lon="18.012075044233">
        <ele>31.2</ele>
        <time>2019-09-10T07:55:22Z</time>
      </trkpt>
      <trkpt lat="59.353751945909" lon="18.011956021253">
        <ele>32.2</ele>
        <time>2019-09-10T07:55:24Z</time>
      </trkpt>
      <trkpt lat="59.353782623663" lon="18.011916207228">
        <ele>32.6</ele>
        <time>2019-09-10T07:55:25Z</time>
      </trkpt>
      <trkpt lat="59.35382897557" lon="18.011822497586">
        <ele>33.2</ele>
        <time>2019-09-10T07:55:27Z</time>
      </trkpt>
      <trkpt lat="59.353828221199" lon="18.01167380268">
        <ele>33.6</ele>
        <time>2019-09-10T07:55:29Z</time>
      </trkpt>
      <trkpt lat="59.353671228212" lon="18.011260407372">
        <ele>34.8</ele>
        <time>2019-09-10T07:55:35Z</time>
      </trkpt>
      <trkpt lat="59.353539297106" lon="18.010955725307">
        <ele>35.6</ele>
        <time>2019-09-10T07:55:41Z</time>
      </trkpt>
      <trkpt lat="59.353481629634" lon="18.010972908202">
        <ele>35.6</ele>
        <time>2019-09-10T07:55:43Z</time>
      </trkpt>
      <trkpt lat="59.353402169222" lon="18.011154292518">
        <ele>35.8</ele>
        <time>2019-09-10T07:55:46Z</time>
      </trkpt>
      <trkpt lat="59.353347183958" lon="18.011296114266">
        <ele>36.2</ele>
        <time>2019-09-10T07:55:48Z</time>
      </trkpt>
      <trkpt lat="59.353244086588" lon="18.011313213342">
        <ele>36.4</ele>
        <time>2019-09-10T07:55:50Z</time>
      </trkpt>
      <trkpt lat="59.353080723357" lon="18.011219000786">
        <ele>36.2</ele>
        <time>2019-09-10T07:55:53Z</time>
      </trkpt>
      <trkpt lat="59.352790374341" lon="18.011152029405">
        <ele>34.6</ele>
        <time>2019-09-10T07:55:58Z</time>
      </trkpt>
      <trkpt lat="59.352243287728" lon="18.011045663094">
        <ele>34.2</ele>
        <time>2019-09-10T07:56:07Z</time>
      </trkpt>
      <trkpt lat="59.352075901185" lon="18.011026049448">
        <ele>34.2</ele>
        <time>2019-09-10T07:56:09Z</time>
      </trkpt>
      <trkpt lat="59.351495286972" lon="18.01108706968">
        <ele>34.4</ele>
        <time>2019-09-10T07:56:17Z</time>
      </trkpt>
      <trkpt lat="59.350997653569" lon="18.011457130565">
        <ele>35.6</ele>
        <time>2019-09-10T07:56:26Z</time>
      </trkpt>
      <trkpt lat="59.35045190806" lon="18.011989716491">
        <ele>35.4</ele>
        <time>2019-09-10T07:56:35Z</time>
      </trkpt>
      <trkpt lat="59.350202462716" lon="18.012074122224">
        <ele>34.6</ele>
        <time>2019-09-10T07:56:38Z</time>
      </trkpt>
      <trkpt lat="59.350113782214" lon="18.012074373681">
        <ele>34.2</ele>
        <time>2019-09-10T07:56:39Z</time>
      </trkpt>
      <trkpt lat="59.349846651061" lon="18.011970102845">
        <ele>33.2</ele>
        <time>2019-09-10T07:56:42Z</time>
      </trkpt>
      <trkpt lat="59.349706254236" lon="18.011767093227">
        <ele>32.2</ele>
        <time>2019-09-10T07:56:44Z</time>
      </trkpt>
      <trkpt lat="59.349404505836" lon="18.011272225851">
        <ele>31</ele>
        <time>2019-09-10T07:56:48Z</time>
      </trkpt>
      <trkpt lat="59.349181379658" lon="18.010937452765">
        <ele>30.6</ele>
        <time>2019-09-10T07:56:51Z</time>
      </trkpt>
      <trkpt lat="59.348967725027" lon="18.010433784394">
        <ele>29.8</ele>
        <time>2019-09-10T07:56:55Z</time>
      </trkpt>
      <trkpt lat="59.348766475608" lon="18.009638509722">
        <ele>29.2</ele>
        <time>2019-09-10T07:57:01Z</time>
      </trkpt>
      <trkpt lat="59.348738731519" lon="18.00938805855">
        <ele>29.2</ele>
        <time>2019-09-10T07:57:03Z</time>
      </trkpt>
      <trkpt lat="59.348782317399" lon="18.009027888307">
        <ele>28.6</ele>
        <time>2019-09-10T07:57:06Z</time>
      </trkpt>
      <trkpt lat="59.348753986577" lon="18.008783472103">
        <ele>27.8</ele>
        <time>2019-09-10T07:57:08Z</time>
      </trkpt>
      <trkpt lat="59.348723141185" lon="18.008679536543">
        <ele>27.4</ele>
        <time>2019-09-10T07:57:09Z</time>
      </trkpt>
      <trkpt lat="59.348593557011" lon="18.008436293805">
        <ele>27</ele>
        <time>2019-09-10T07:57:12Z</time>
      </trkpt>
      <trkpt lat="59.348507726355" lon="18.008366891673">
        <ele>26.6</ele>
        <time>2019-09-10T07:57:15Z</time>
      </trkpt>
      <trkpt lat="59.348441760802" lon="18.008461690962">
        <ele>26.2</ele>
        <time>2019-09-10T07:57:17Z</time>
      </trkpt>
      <trkpt lat="59.348361965114" lon="18.00863955488">
        <ele>25.8</ele>
        <time>2019-09-10T07:57:19Z</time>
      </trkpt>
      <trkpt lat="59.347996765731" lon="18.009108019271">
        <ele>25.2</ele>
        <time>2019-09-10T07:57:25Z</time>
      </trkpt>
      <trkpt lat="59.347922502097" lon="18.009149090581">
        <ele>25.2</ele>
        <time>2019-09-10T07:57:26Z</time>
      </trkpt>
      <trkpt lat="59.347766179662" lon="18.009202483284">
        <ele>25.2</ele>
        <time>2019-09-10T07:57:28Z</time>
      </trkpt>
      <trkpt lat="59.347600050404" lon="18.00920533313">
        <ele>25</ele>
        <time>2019-09-10T07:57:30Z</time>
      </trkpt>
      <trkpt lat="59.347360076607" lon="18.009125285985">
        <ele>24</ele>
        <time>2019-09-10T07:57:33Z</time>
      </trkpt>
      <trkpt lat="59.346792286701" lon="18.008713483238">
        <ele>23.4</ele>
        <time>2019-09-10T07:57:40Z</time>
      </trkpt>
      <trkpt lat="59.346636802456" lon="18.008588928204">
        <ele>22.8</ele>
        <time>2019-09-10T07:57:42Z</time>
      </trkpt>
      <trkpt lat="59.346112682249" lon="18.00819112323">
        <ele>22</ele>
        <time>2019-09-10T07:57:49Z</time>
      </trkpt>
      <trkpt lat="59.346036406959" lon="18.008137814346">
        <ele>21.8</ele>
        <time>2019-09-10T07:57:50Z</time>
      </trkpt>
      <trkpt lat="59.345500971187" lon="18.007697932234">
        <ele>21.2</ele>
        <time>2019-09-10T07:57:58Z</time>
      </trkpt>
      <trkpt lat="59.345053293908" lon="18.007375983455">
        <ele>20.6</ele>
        <time>2019-09-10T07:58:05Z</time>
      </trkpt>
      <trkpt lat="59.34493075053" lon="18.007316723422">
        <ele>20.4</ele>
        <time>2019-09-10T07:58:07Z</time>
      </trkpt>
      <trkpt lat="59.344771410611" lon="18.007279591605">
        <ele>19.6</ele>
        <time>2019-09-10T07:58:10Z</time>
      </trkpt>
      <trkpt lat="59.344670157259" lon="18.007281770899">
        <ele>20</ele>
        <time>2019-09-10T07:58:12Z</time>
      </trkpt>
      <trkpt lat="59.344565970242" lon="18.007306581323">
        <ele>19.8</ele>
        <time>2019-09-10T07:58:14Z</time>
      </trkpt>
      <trkpt lat="59.344307640084" lon="18.007361734225">
        <ele>19.6</ele>
        <time>2019-09-10T07:58:18Z</time>
      </trkpt>
      <trkpt lat="59.344250643164" lon="18.007387718115">
        <ele>19.6</ele>
        <time>2019-09-10T07:58:19Z</time>
      </trkpt>
      <trkpt lat="59.344199513574" lon="18.007419234059">
        <ele>19.4</ele>
        <time>2019-09-10T07:58:20Z</time>
      </trkpt>
      <trkpt lat="59.343994240843" lon="18.007569437707">
        <ele>18.6</ele>
        <time>2019-09-10T07:58:24Z</time>
      </trkpt>
      <trkpt lat="59.343555532197" lon="18.008270248366">
        <ele>18.6</ele>
        <time>2019-09-10T07:58:36Z</time>
      </trkpt>
      <trkpt lat="59.343524100072" lon="18.008369406243">
        <ele>18.6</ele>
        <time>2019-09-10T07:58:38Z</time>
      </trkpt>
      <trkpt lat="59.343284126275" lon="18.009334917304">
        <ele>19.8</ele>
        <time>2019-09-10T07:58:49Z</time>
      </trkpt>
      <trkpt lat="59.3427455892" lon="18.009551170324">
        <ele>20.6</ele>
        <time>2019-09-10T07:59:00Z</time>
      </trkpt>
      <trkpt lat="59.342555487708" lon="18.00956575483">
        <ele>21</ele>
        <time>2019-09-10T07:59:04Z</time>
      </trkpt>
      <trkpt lat="59.342496143856" lon="18.009590649073">
        <ele>21.2</ele>
        <time>2019-09-10T07:59:05Z</time>
      </trkpt>
      <trkpt lat="59.34240025492" lon="18.009655524979">
        <ele>21.8</ele>
        <time>2019-09-10T07:59:07Z</time>
      </trkpt>
      <trkpt lat="59.342266731253" lon="18.009778403633">
        <ele>22.2</ele>
        <time>2019-09-10T07:59:09Z</time>
      </trkpt>
      <trkpt lat="59.342142762952" lon="18.009904718866">
        <ele>22.2</ele>
        <time>2019-09-10T07:59:11Z</time>
      </trkpt>
      <trkpt lat="59.342049220948" lon="18.010088114838">
        <ele>22</ele>
        <time>2019-09-10T07:59:13Z</time>
      </trkpt>
      <trkpt lat="59.341947129406" lon="18.010187021258">
        <ele>21.8</ele>
        <time>2019-09-10T07:59:15Z</time>
      </trkpt>
      <trkpt lat="59.341521664162" lon="18.010726061247">
        <ele>22.2</ele>
        <time>2019-09-10T07:59:24Z</time>
      </trkpt>
      <trkpt lat="59.341408592331" lon="18.01102085267">
        <ele>22.2</ele>
        <time>2019-09-10T07:59:27Z</time>
      </trkpt>
      <trkpt lat="59.341202313772" lon="18.012048222153">
        <ele>22.8</ele>
        <time>2019-09-10T07:59:41Z</time>
      </trkpt>
      <trkpt lat="59.341010368262" lon="18.012840311703">
        <ele>22.4</ele>
        <time>2019-09-10T07:59:51Z</time>
      </trkpt>
      <trkpt lat="59.340914395507" lon="18.012895716062">
        <ele>22.4</ele>
        <time>2019-09-10T07:59:53Z</time>
      </trkpt>
      <trkpt lat="59.34049756362" lon="18.012834947287">
        <ele>23.4</ele>
        <time>2019-09-10T08:00:01Z</time>
      </trkpt>
      <trkpt lat="59.340367979446" lon="18.012849615612">
        <ele>23.8</ele>
        <time>2019-09-10T08:00:03Z</time>
      </trkpt>
      <trkpt lat="59.340245100792" lon="18.012967884221">
        <ele>23.4</ele>
        <time>2019-09-10T08:00:07Z</time>
      </trkpt>
      <trkpt lat="59.340209142441" lon="18.013319840202">
        <ele>23.2</ele>
        <time>2019-09-10T08:00:12Z</time>
      </trkpt>
      <trkpt lat="59.340132615694" lon="18.013754441717">
        <ele>22.2</ele>
        <time>2019-09-10T08:00:17Z</time>
      </trkpt>
      <trkpt lat="59.339990374851" lon="18.014137159271">
        <ele>21</ele>
        <time>2019-09-10T08:00:21Z</time>
      </trkpt>
      <trkpt lat="59.339869172577" lon="18.014381826932">
        <ele>20.6</ele>
        <time>2019-09-10T08:00:24Z</time>
      </trkpt>
      <trkpt lat="59.339405485869" lon="18.0153266347">
        <ele>22.6</ele>
        <time>2019-09-10T08:00:33Z</time>
      </trkpt>
      <trkpt lat="59.339333736805" lon="18.015357396273">
        <ele>23.4</ele>
        <time>2019-09-10T08:00:35Z</time>
      </trkpt>
      <trkpt lat="59.339314793711" lon="18.01530567995">
        <ele>23.8</ele>
        <time>2019-09-10T08:00:36Z</time>
      </trkpt>
      <trkpt lat="59.339264753768" lon="18.01517156955">
        <ele>25.2</ele>
        <time>2019-09-10T08:00:39Z</time>
      </trkpt>
      <trkpt lat="59.339215468196" lon="18.015046008688">
        <ele>26.4</ele>
        <time>2019-09-10T08:00:42Z</time>
      </trkpt>
      <trkpt lat="59.339145227874" lon="18.014894631574">
        <ele>27.4</ele>
        <time>2019-09-10T08:00:45Z</time>
      </trkpt>
      <trkpt lat="59.339045567083" lon="18.014700590589">
        <ele>28.6</ele>
        <time>2019-09-10T08:00:48Z</time>
      </trkpt>
      <trkpt lat="59.338968118327" lon="18.014508393622">
        <ele>29.8</ele>
        <time>2019-09-10T08:00:51Z</time>
      </trkpt>
      <trkpt lat="59.338878683454" lon="18.014375959602">
        <ele>30.8</ele>
        <time>2019-09-10T08:00:54Z</time>
      </trkpt>
      <trkpt lat="59.338696628586" lon="18.014030038589">
        <ele>32</ele>
        <time>2019-09-10T08:01:02Z</time>
      </trkpt>
      <trkpt lat="59.338576264502" lon="18.013528968607">
        <ele>33.2</ele>
        <time>2019-09-10T08:01:10Z</time>
      </trkpt>
      <trkpt lat="59.338567631145" lon="18.012998645794">
        <ele>34.6</ele>
        <time>2019-09-10T08:01:14Z</time>
      </trkpt>
      <trkpt lat="59.338568636973" lon="18.012845508481">
        <ele>35.2</ele>
        <time>2019-09-10T08:01:16Z</time>
      </trkpt>
      <trkpt lat="59.338510718044" lon="18.012765796612">
        <ele>35.2</ele>
        <time>2019-09-10T08:01:18Z</time>
      </trkpt>
      <trkpt lat="59.338388342304" lon="18.012616263516">
        <ele>35.6</ele>
        <time>2019-09-10T08:01:22Z</time>
      </trkpt>
      <trkpt lat="59.338271414799" lon="18.012595644042">
        <ele>36</ele>
        <time>2019-09-10T08:01:25Z</time>
      </trkpt>
      <trkpt lat="59.338009983338" lon="18.012675355911">
        <ele>36.6</ele>
        <time>2019-09-10T08:01:32Z</time>
      </trkpt>
      <trkpt lat="59.337636485874" lon="18.012689772779">
        <ele>37.6</ele>
        <time>2019-09-10T08:01:38Z</time>
      </trkpt>
      <trkpt lat="59.337480414896" lon="18.01266705783">
        <ele>37.6</ele>
        <time>2019-09-10T08:01:40Z</time>
      </trkpt>
      <trkpt lat="59.337386369978" lon="18.01273076027">
        <ele>37.6</ele>
        <time>2019-09-10T08:01:42Z</time>
      </trkpt>
      <trkpt lat="59.337198866875" lon="18.012874593674">
        <ele>38.2</ele>
        <time>2019-09-10T08:01:46Z</time>
      </trkpt>
      <trkpt lat="59.337123429775" lon="18.012959837597">
        <ele>38.8</ele>
        <time>2019-09-10T08:01:48Z</time>
      </trkpt>
      <trkpt lat="59.336983200588" lon="18.013058576379">
        <ele>39</ele>
        <time>2019-09-10T08:01:51Z</time>
      </trkpt>
      <trkpt lat="59.336799972254" lon="18.013436013336">
        <ele>38.6</ele>
        <time>2019-09-10T08:01:57Z</time>
      </trkpt>
      <trkpt lat="59.336555220774" lon="18.013914619826">
        <ele>38.2</ele>
        <time>2019-09-10T08:02:04Z</time>
      </trkpt>
      <trkpt lat="59.336460170028" lon="18.014134560882">
        <ele>37.6</ele>
        <time>2019-09-10T08:02:07Z</time>
      </trkpt>
      <trkpt lat="59.336293621675" lon="18.014297002104">
        <ele>36.2</ele>
        <time>2019-09-10T08:02:11Z</time>
      </trkpt>
      <trkpt lat="59.336265877586" lon="18.014427592106">
        <ele>35.4</ele>
        <time>2019-09-10T08:02:13Z</time>
      </trkpt>
      <trkpt lat="59.336205276449" lon="18.014433543255">
        <ele>34.8</ele>
        <time>2019-09-10T08:02:14Z</time>
      </trkpt>
      <trkpt lat="59.336150877918" lon="18.014392220488">
        <ele>34.2</ele>
        <time>2019-09-10T08:02:15Z</time>
      </trkpt>
      <trkpt lat="59.336037806087" lon="18.014282417598">
        <ele>33.2</ele>
        <time>2019-09-10T08:02:17Z</time>
      </trkpt>
      <trkpt lat="59.33589506233" lon="18.014084520939">
        <ele>32.2</ele>
        <time>2019-09-10T08:02:20Z</time>
      </trkpt>
      <trkpt lat="59.335751145107" lon="18.013999947568">
        <ele>31</ele>
        <time>2019-09-10T08:02:23Z</time>
      </trkpt>
      <trkpt lat="59.335693980549" lon="18.013912691989">
        <ele>29.8</ele>
        <time>2019-09-10T08:02:26Z</time>
      </trkpt>
      <trkpt lat="59.335663218976" lon="18.013937921508">
        <ele>29.4</ele>
        <time>2019-09-10T08:02:27Z</time>
      </trkpt>
    </trkseg>
  </trk>
</gpx>